KAIZ/AIZ METAR and TAF weather

Enter ICAO airport designator
Station Type Date Time Source
KAIZ METAR 2018/01/17 05:56 UTC NOAA

KAIZ 170556Z AUTO 24003KT 10SM CLR M20/M24 A3071 RMK AO2 SLP422 T12001239 11156 21200 411171200 58006 FZRANO


Station Type Date Time Source
KAIZ Decoded METAR 2018/01/17 05:56 UTC NOAA

Kaiser Lake Ozark, Lee C Fine Memorial Airport, MO, United States (KAIZ) 38-06N 092-33W
Jan 17, 2018 - 12:56 AM EST / 2018.01.17 0556 UTC
Wind: from the WSW (240 degrees) at 3 MPH (3 KT):0
Visibility: 10 mile(s):0
Sky conditions: clear
Temperature: -4.0 F (-20.0 C)
Dew Point: -11.0 F (-23.9 C)
Relative Humidity: 71%
Pressure (altimeter): 30.71 in. Hg (1039 hPa)
Pressure tendency: 0.02 inches (0.6 hPa) lower than three hours ago
ob: KAIZ 170556Z AUTO 24003KT 10SM CLR M20/M24 A3071 RMK AO2 SLP422 T12001239 11156 21200 411171200 58006 FZRANO
cycle: 6

Station Type Date Time Source
KAIZ TAF UTC NOAA

Error!


Example: see airport list